Time;durP1;ratioP1;P1;durP2;ratioP2;P2;SDS_P1;SDS_P2;PMS_P1;PMS_P2;Temp;Humidity;BMP_temperature;BMP_pressure;BME280_temperature;BME280_humidity;BME280_pressure;Samples;Min_cycle;Max_cycle;Signal;HPM_P1;HPM_P2
2021/05/07 00:01:03;;;;;;;1.52;0.60;;;7.90;99.90;;;;;;5036422;28;20119;-81
2021/05/07 00:03:29;;;;;;;0.60;0.47;;;8.00;99.90;;;;;;5053996;28;20021;-81
2021/05/07 00:05:55;;;;;;;0.60;0.50;;;8.00;99.90;;;;;;5036047;28;20116;-81
2021/05/07 00:08:32;;;;;;;0.60;0.50;;;7.90;99.90;;;;;;5036069;28;20083;-81
2021/05/07 00:11:01;;;;;;;0.65;0.40;;;7.90;99.90;;;;;;5036053;28;20502;-81
2021/05/07 00:13:27;;;;;;;0.75;0.70;;;7.90;99.90;;;;;;5035909;28;20028;-81
2021/05/07 00:15:53;;;;;;;1.30;0.60;;;7.90;99.90;;;;;;5035904;28;20037;-81
2021/05/07 00:18:19;;;;;;;0.68;0.60;;;7.90;99.90;;;;;;5035876;28;20078;-81
2021/05/07 00:20:45;;;;;;;0.45;0.43;;;7.90;99.90;;;;;;5035803;28;20480;-81
2021/05/07 00:23:11;;;;;;;0.47;0.47;;;7.90;99.90;;;;;;5035747;28;20027;-81
2021/05/07 00:25:37;;;;;;;0.82;0.55;;;7.80;99.90;;;;;;5035781;28;20024;-81
2021/05/07 00:28:06;;;;;;;0.88;0.60;;;7.90;99.90;;;;;;5035700;28;20025;-81
2021/05/07 00:30:32;;;;;;;0.63;0.43;;;7.90;99.90;;;;;;5035665;28;20043;-81
2021/05/07 00:32:58;;;;;;;0.57;0.50;;;7.90;99.90;;;;;;5053499;28;20104;-81
2021/05/07 00:35:24;;;;;;;0.50;0.50;;;7.90;99.90;;;;;;5035591;28;20476;-82
2021/05/07 00:37:50;;;;;;;0.70;0.40;;;7.80;99.90;;;;;;5035505;28;20060;-82
2021/05/07 00:40:16;;;;;;;0.60;0.57;;;7.90;99.90;;;;;;5035526;28;20083;-81
2021/05/07 00:42:42;;;;;;;1.23;0.60;;;8.00;99.90;;;;;;5052577;28;20096;-82
2021/05/07 00:45:10;;;;;;;0.60;0.60;;;8.00;99.90;;;;;;5035511;28;20111;-81
2021/05/07 00:47:41;;;;;;;1.52;0.50;;;8.00;99.90;;;;;;5035205;28;20500;-81
2021/05/07 00:50:07;;;;;;;0.70;0.50;;;8.10;99.90;;;;;;5035300;28;20031;-81
2021/05/07 00:52:37;;;;;;;0.73;0.50;;;8.10;99.90;;;;;;5035296;28;20029;-81
2021/05/07 00:55:05;;;;;;;0.73;0.40;;;8.10;99.90;;;;;;5035317;28;20036;-80
2021/05/07 00:57:32;;;;;;;0.75;0.50;;;8.10;99.90;;;;;;5035144;28;20025;-80
2021/05/07 00:59:58;;;;;;;0.85;0.50;;;8.00;99.90;;;;;;5035280;28;20051;-81
2021/05/07 01:02:24;;;;;;;0.52;0.50;;;7.90;99.90;;;;;;5035294;28;20031;-81
2021/05/07 01:04:50;;;;;;;0.50;0.50;;;7.80;99.90;;;;;;5035267;28;20025;-80
2021/05/07 01:07:16;;;;;;;0.52;0.50;;;7.70;99.90;;;;;;5035285;28;20477;-80
2021/05/07 01:09:42;;;;;;;1.90;0.60;;;7.60;99.90;;;;;;5053092;28;20070;-81
2021/05/07 01:12:08;;;;;;;0.40;0.40;;;7.60;99.90;;;;;;5053062;28;20021;-81
2021/05/07 01:14:35;;;;;;;0.75;0.50;;;7.50;99.90;;;;;;5035112;28;20036;-81
2021/05/07 01:17:01;;;;;;;0.40;0.32;;;7.60;99.90;;;;;;5034777;28;20167;-81
2021/05/07 01:19:27;;;;;;;0.70;0.50;;;7.60;99.90;;;;;;5034886;28;20032;-80
2021/05/07 01:21:54;;;;;;;0.30;0.30;;;7.60;99.90;;;;;;5035097;28;20541;-80
2021/05/07 01:24:21;;;;;;;0.40;0.40;;;7.50;99.90;;;;;;5052920;28;20017;-80
2021/05/07 01:26:47;;;;;;;1.40;0.40;;;7.50;99.90;;;;;;5035066;28;20476;-81
2021/05/07 01:29:13;;;;;;;0.40;0.40;;;7.50;99.90;;;;;;5034914;28;20079;-80
2021/05/07 01:31:42;;;;;;;2.92;0.60;;;7.60;99.90;;;;;;5052870;28;20560;-81
2021/05/07 01:34:08;;;;;;;0.75;0.55;;;7.60;99.90;;;;;;5035154;28;20025;-81
2021/05/07 01:36:34;;;;;;;0.40;0.40;;;7.60;99.90;;;;;;5035402;28;20507;-81
2021/05/07 01:39:00;;;;;;;0.90;0.38;;;7.60;99.90;;;;;;5035011;28;20025;-81
2021/05/07 01:41:26;;;;;;;0.70;0.50;;;7.60;99.90;;;;;;5035024;28;20032;-81
2021/05/07 01:43:51;;;;;;;0.40;0.40;;;7.70;99.90;;;;;;5052956;28;20092;-81
2021/05/07 01:46:17;;;;;;;0.40;0.40;;;7.70;99.90;;;;;;5035195;28;20017;-82
2021/05/07 01:48:42;;;;;;;0.52;0.40;;;7.70;99.90;;;;;;5034866;28;20045;-81
2021/05/07 01:51:09;;;;;;;0.57;0.38;;;7.70;99.90;;;;;;5035987;28;20033;-82
2021/05/07 01:53:35;;;;;;;1.52;0.50;;;7.70;99.90;;;;;;5035227;28;20414;-81
2021/05/07 01:56:01;;;;;;;0.65;0.40;;;7.70;99.90;;;;;;5038547;28;20025;-81
2021/05/07 01:58:27;;;;;;;0.88;0.40;;;7.70;99.90;;;;;;5038574;28;20025;-81
2021/05/07 02:00:54;;;;;;;0.65;0.38;;;7.60;99.90;;;;;;5038643;28;20024;-81
2021/05/07 02:03:19;;;;;;;0.30;0.30;;;7.70;99.90;;;;;;5038504;28;20021;-81
2021/05/07 02:05:45;;;;;;;0.50;0.35;;;7.80;99.90;;;;;;5038422;28;20025;-82
2021/05/07 02:08:11;;;;;;;0.47;0.40;;;7.80;99.90;;;;;;5038405;28;20054;-81
2021/05/07 02:10:38;;;;;;;0.40;0.30;;;7.70;99.90;;;;;;5038483;28;20033;-82
2021/05/07 02:13:09;;;;;;;0.30;0.30;;;7.60;99.90;;;;;;5038348;28;20029;-82
2021/05/07 02:15:36;;;;;;;0.30;0.30;;;7.40;99.90;;;;;;5038446;28;20048;-82
2021/05/07 02:18:03;;;;;;;0.32;0.30;;;7.30;99.90;;;;;;5038120;28;20025;-82
2021/05/07 02:20:30;;;;;;;0.55;0.43;;;7.40;99.90;;;;;;5038277;28;20403;-82
2021/05/07 02:22:56;;;;;;;0.30;0.30;;;7.30;99.90;;;;;;5038175;28;20059;-82
2021/05/07 02:25:24;;;;;;;0.45;0.43;;;7.30;99.90;;;;;;5038273;28;20021;-81
2021/05/07 02:27:51;;;;;;;0.45;0.40;;;7.30;99.90;;;;;;5038392;28;20074;-81
2021/05/07 02:30:20;;;;;;;2.30;0.47;;;7.20;99.90;;;;;;5038476;28;20404;-81
2021/05/07 02:32:46;;;;;;;3.22;0.40;;;7.20;99.90;;;;;;5056023;28;20028;-81
2021/05/07 02:35:12;;;;;;;0.20;0.20;;;7.30;99.90;;;;;;5055778;28;20422;-82
2021/05/07 02:37:38;;;;;;;0.30;0.30;;;7.30;99.90;;;;;;5055783;28;20029;-81
2021/05/07 02:40:06;;;;;;;0.30;0.30;;;7.30;99.90;;;;;;5055689;28;20071;-82
2021/05/07 02:42:32;;;;;;;0.50;0.30;;;7.40;99.90;;;;;;5037919;28;20028;-81
2021/05/07 02:44:57;;;;;;;0.30;0.30;;;7.40;99.90;;;;;;5037743;28;20388;-81
2021/05/07 02:47:23;;;;;;;0.75;0.30;;;7.40;99.90;;;;;;5055468;28;20045;-82
2021/05/07 02:49:49;;;;;;;0.65;0.32;;;7.30;99.90;;;;;;5037705;28;20487;-81
2021/05/07 02:52:15;;;;;;;2.40;0.52;;;7.30;99.90;;;;;;5037567;28;20108;-82
2021/05/07 02:54:41;;;;;;;0.40;0.30;;;7.30;99.90;;;;;;5037560;28;20527;-82
2021/05/07 02:57:07;;;;;;;0.43;0.30;;;7.40;99.90;;;;;;5037759;28;20021;-81
2021/05/07 02:59:33;;;;;;;0.47;0.35;;;7.40;99.90;;;;;;5037447;28;20128;-82
2021/05/07 03:01:58;;;;;;;1.38;0.50;;;7.40;99.90;;;;;;5037569;28;20444;-82
2021/05/07 03:04:24;;;;;;;0.43;0.40;;;7.40;99.90;;;;;;5037392;28;20388;-81
2021/05/07 03:06:50;;;;;;;0.88;0.52;;;7.40;99.90;;;;;;5054647;28;20021;-82
2021/05/07 03:09:17;;;;;;;0.68;0.43;;;7.30;99.90;;;;;;5037317;28;20473;-81
2021/05/07 03:11:44;;;;;;;1.38;0.50;;;7.30;99.90;;;;;;5055231;28;20103;-81
2021/05/07 03:14:10;;;;;;;0.50;0.40;;;7.40;99.90;;;;;;5037145;28;20116;-82
2021/05/07 03:16:36;;;;;;;0.60;0.30;;;7.40;99.90;;;;;;5037213;28;20029;-81
2021/05/07 03:19:02;;;;;;;1.10;0.40;;;7.60;99.90;;;;;;5055029;28;20365;-82
2021/05/07 03:21:28;;;;;;;0.45;0.30;;;7.50;99.90;;;;;;5055159;28;20021;-81
2021/05/07 03:23:54;;;;;;;0.88;0.45;;;7.50;99.90;;;;;;5037211;28;20018;-81
2021/05/07 03:26:20;;;;;;;0.30;0.30;;;7.40;99.90;;;;;;5036973;28;20481;-82
2021/05/07 03:28:45;;;;;;;2.10;0.30;;;7.50;99.90;;;;;;5054913;28;20547;-82
2021/05/07 03:31:11;;;;;;;2.13;0.30;;;7.50;99.90;;;;;;5036969;28;20083;-82
2021/05/07 03:33:38;;;;;;;0.68;0.30;;;7.50;99.90;;;;;;5037012;28;20471;-82
2021/05/07 03:36:05;;;;;;;0.50;0.40;;;7.40;99.90;;;;;;5037155;28;20033;-82
2021/05/07 03:38:31;;;;;;;0.35;0.35;;;7.40;99.90;;;;;;5037159;28;20025;-82
2021/05/07 03:40:57;;;;;;;1.92;0.50;;;7.60;99.90;;;;;;5037069;28;20555;-82
2021/05/07 03:43:23;;;;;;;2.35;0.50;;;7.50;99.90;;;;;;5036940;28;20051;-82
2021/05/07 03:45:49;;;;;;;0.40;0.40;;;7.50;99.90;;;;;;5054703;28;20498;-82
2021/05/07 03:48:16;;;;;;;1.23;0.40;;;7.40;99.90;;;;;;5036624;28;20052;-83
2021/05/07 03:50:42;;;;;;;0.68;0.40;;;7.40;99.90;;;;;;5037093;28;20029;-82
2021/05/07 03:53:11;;;;;;;0.70;0.40;;;7.40;99.90;;;;;;5037374;28;20025;-83
2021/05/07 03:55:38;;;;;;;0.50;0.40;;;7.40;99.90;;;;;;5054614;28;20551;-82
2021/05/07 03:58:03;;;;;;;0.68;0.40;;;7.40;99.90;;;;;;5055386;28;20052;-82
2021/05/07 04:00:29;;;;;;;0.32;0.28;;;7.40;99.90;;;;;;5055299;28;20055;-82
2021/05/07 04:02:55;;;;;;;0.40;0.40;;;7.30;99.90;;;;;;5037196;28;20065;-82
2021/05/07 04:05:21;;;;;;;0.88;0.38;;;7.20;99.90;;;;;;5054728;28;20460;-82
2021/05/07 04:07:51;;;;;;;0.47;0.40;;;7.10;99.90;;;;;;5056487;28;20104;-83
2021/05/07 04:10:19;;;;;;;0.20;0.20;;;7.00;99.90;;;;;;5036674;28;20024;-82
2021/05/07 04:15:15;;;;;;;0.22;0.22;;;7.00;99.90;;;;;;5054285;28;20021;-83
2021/05/07 04:17:42;;;;;;;0.43;0.28;;;7.10;99.90;;;;;;5037744;28;20021;-83
2021/05/07 04:20:08;;;;;;;2.92;0.45;;;7.00;99.90;;;;;;5054663;28;20023;-83
2021/05/07 04:22:34;;;;;;;0.32;0.32;;;7.00;99.90;;;;;;5036021;28;20025;-83
2021/05/07 04:25:00;;;;;;;0.30;0.30;;;7.10;99.90;;;;;;5036364;28;20017;-83
2021/05/07 04:27:26;;;;;;;0.30;0.30;;;7.10;99.90;;;;;;5036354;28;20368;-83
2021/05/07 04:29:52;;;;;;;0.55;0.40;;;7.10;99.90;;;;;;5054325;28;20029;-83
2021/05/07 04:32:18;;;;;;;0.80;0.65;;;7.30;99.90;;;;;;5053708;28;20024;-83
2021/05/07 04:34:44;;;;;;;1.00;0.57;;;7.30;99.90;;;;;;5035971;28;20025;-83
2021/05/07 04:37:09;;;;;;;0.55;0.40;;;7.10;99.90;;;;;;5053999;28;20047;-82
2021/05/07 04:39:35;;;;;;;1.08;0.38;;;7.10;99.90;;;;;;5035958;28;20117;-82
2021/05/07 04:42:01;;;;;;;1.77;0.50;;;7.30;99.90;;;;;;5035809;28;20025;-82
2021/05/07 04:44:26;;;;;;;0.90;0.40;;;7.20;99.90;;;;;;5053484;28;20021;-83
2021/05/07 04:46:53;;;;;;;0.77;0.40;;;7.00;99.90;;;;;;5035596;28;20033;-82
2021/05/07 04:49:19;;;;;;;1.00;0.40;;;7.10;99.90;;;;;;5053504;28;20080;-82
2021/05/07 04:51:45;;;;;;;1.73;0.30;;;7.20;99.90;;;;;;5036556;28;20025;-82
2021/05/07 04:54:11;;;;;;;0.20;0.20;;;7.20;99.90;;;;;;5053355;28;20025;-82
2021/05/07 04:56:37;;;;;;;0.30;0.30;;;7.20;99.90;;;;;;5035523;28;20028;-83
2021/05/07 04:59:03;;;;;;;0.25;0.22;;;7.20;99.90;;;;;;5036059;28;20037;-82
2021/05/07 05:01:29;;;;;;;0.30;0.30;;;7.10;99.90;;;;;;5035616;28;20480;-82
2021/05/07 05:03:54;;;;;;;0.73;0.40;;;7.10;99.90;;;;;;5035693;28;20021;-82
2021/05/07 05:06:20;;;;;;;0.63;0.40;;;7.10;99.90;;;;;;5035947;28;20037;-82
2021/05/07 05:08:46;;;;;;;0.30;0.30;;;7.00;99.90;;;;;;5035710;28;20029;-82
2021/05/07 05:11:11;;;;;;;0.43;0.43;;;7.10;99.90;;;;;;5053321;28;20477;-82
2021/05/07 05:13:37;;;;;;;1.23;0.60;;;7.10;99.90;;;;;;5036017;28;20506;-82
2021/05/07 05:16:04;;;;;;;0.75;0.40;;;7.20;99.90;;;;;;5035968;28;20032;-82
2021/05/07 05:18:31;;;;;;;0.77;0.55;;;7.30;99.90;;;;;;5035352;28;20021;-82
2021/05/07 05:21:00;;;;;;;0.98;0.50;;;7.40;99.90;;;;;;5035334;28;20025;-82
2021/05/07 05:23:27;;;;;;;0.95;0.40;;;7.30;99.90;;;;;;5035605;28;20021;-82
2021/05/07 05:25:53;;;;;;;0.32;0.22;;;7.30;99.90;;;;;;5035760;28;20022;-82
2021/05/07 05:28:19;;;;;;;0.30;0.30;;;7.20;99.90;;;;;;5036339;28;20048;-82
2021/05/07 05:30:45;;;;;;;1.75;0.40;;;7.20;99.90;;;;;;5040865;28;20033;-82
2021/05/07 05:33:11;;;;;;;0.60;0.40;;;7.20;99.90;;;;;;5040984;28;20143;-82
2021/05/07 05:35:36;;;;;;;1.67;0.43;;;7.20;99.90;;;;;;5039713;28;20116;-82
2021/05/07 05:38:04;;;;;;;1.73;0.30;;;7.20;99.90;;;;;;5040955;28;20106;-82
2021/05/07 05:40:29;;;;;;;0.82;0.50;;;7.20;99.90;;;;;;5057945;28;20021;-82
2021/05/07 05:42:55;;;;;;;0.93;0.50;;;7.20;99.90;;;;;;5041312;28;20061;-82
2021/05/07 05:45:23;;;;;;;0.40;0.40;;;7.20;99.90;;;;;;5058230;28;20531;-82
2021/05/07 05:48:03;;;;;;;0.45;0.40;;;7.20;99.90;;;;;;5058780;28;20041;-82
2021/05/07 05:50:29;;;;;;;0.77;0.50;;;7.30;99.90;;;;;;5062457;28;20021;-82
2021/05/07 05:52:55;;;;;;;0.30;0.30;;;7.40;99.90;;;;;;5045628;28;20391;-82
2021/05/07 05:55:21;;;;;;;0.30;0.30;;;7.40;99.90;;;;;;5060553;28;20032;-81
2021/05/07 05:57:48;;;;;;;2.22;0.40;;;7.30;99.90;;;;;;5060815;28;20025;-82
2021/05/07 06:00:14;;;;;;;0.50;0.50;;;7.40;99.90;;;;;;5061110;28;20028;-82
2021/05/07 06:02:40;;;;;;;1.40;0.60;;;7.40;99.90;;;;;;5040756;28;20388;-81
2021/05/07 06:05:10;;;;;;;1.13;0.40;;;7.40;99.90;;;;;;5042230;28;20430;-81
2021/05/07 06:07:36;;;;;;;1.85;0.50;;;7.40;99.90;;;;;;5043861;28;20021;-82
2021/05/07 06:10:03;;;;;;;1.35;0.50;;;7.50;99.90;;;;;;5041785;28;20056;-82
2021/05/07 06:12:29;;;;;;;0.40;0.40;;;7.60;99.90;;;;;;5041052;28;20025;-82
2021/05/07 06:14:55;;;;;;;0.57;0.52;;;7.50;99.90;;;;;;5061081;28;20036;-82
2021/05/07 06:17:21;;;;;;;1.27;0.80;;;7.50;99.90;;;;;;5044063;28;20021;-82
2021/05/07 06:19:47;;;;;;;0.52;0.52;;;7.60;99.90;;;;;;5045942;28;20052;-81
2021/05/07 06:22:12;;;;;;;0.90;0.68;;;7.60;99.90;;;;;;5046625;28;20025;-82
2021/05/07 06:24:38;;;;;;;1.13;0.80;;;7.60;99.90;;;;;;5053374;28;20028;-81
2021/05/07 06:27:04;;;;;;;0.90;0.70;;;7.60;99.90;;;;;;5052064;28;20028;-82
2021/05/07 06:29:30;;;;;;;0.63;0.60;;;7.60;99.90;;;;;;5048132;28;20021;-81
2021/05/07 06:31:55;;;;;;;0.98;0.77;;;7.50;99.90;;;;;;5047554;28;20025;-81
2021/05/07 06:34:21;;;;;;;1.35;0.90;;;7.50;99.90;;;;;;5045922;28;20025;-82
2021/05/07 06:36:48;;;;;;;2.20;0.82;;;7.40;99.90;;;;;;5046878;28;20029;-82
2021/05/07 06:39:13;;;;;;;1.10;0.90;;;7.30;99.90;;;;;;5066768;28;20037;-81
2021/05/07 06:41:39;;;;;;;2.22;1.10;;;7.10;99.90;;;;;;5046571;28;20028;-81
2021/05/07 06:44:06;;;;;;;2.08;1.30;;;7.20;99.90;;;;;;5065400;28;20045;-81
2021/05/07 06:46:32;;;;;;;1.30;1.08;;;7.20;99.90;;;;;;5065015;28;20017;-82
2021/05/07 06:48:57;;;;;;;1.52;1.30;;;7.20;99.90;;;;;;5041645;28;20048;-82
2021/05/07 06:51:23;;;;;;;1.98;1.23;;;7.30;99.90;;;;;;5043209;28;20137;-82
2021/05/07 06:53:49;;;;;;;1.45;1.35;;;7.30;99.90;;;;;;5063695;28;20129;-82
2021/05/07 06:56:20;;;;;;;1.80;1.10;;;7.40;99.90;;;;;;5042205;28;20503;-82
2021/05/07 06:58:47;;;;;;;2.00;1.35;;;7.50;99.90;;;;;;5045676;28;20097;-82
2021/05/07 07:01:13;;;;;;;1.50;1.10;;;7.50;99.90;;;;;;5042937;28;20055;-82
2021/05/07 07:03:38;;;;;;;1.55;1.08;;;7.60;99.90;;;;;;5043045;28;20025;-82
2021/05/07 07:06:04;;;;;;;2.00;1.42;;;7.50;99.90;;;;;;5042306;28;20029;-81
2021/05/07 07:08:30;;;;;;;3.97;2.63;;;7.60;99.90;;;;;;5043129;28;20116;-81
2021/05/07 07:10:58;;;;;;;3.13;2.28;;;7.60;99.90;;;;;;5041866;28;20536;-81
2021/05/07 07:13:24;;;;;;;3.80;2.72;;;7.50;99.90;;;;;;5056860;28;20104;-82
2021/05/07 07:15:50;;;;;;;4.88;2.60;;;7.50;99.90;;;;;;5056876;28;20057;-82
2021/05/07 07:18:20;;;;;;;2.20;2.00;;;7.60;99.90;;;;;;5040596;28;20025;-82
2021/05/07 07:20:47;;;;;;;3.50;2.53;;;7.70;99.90;;;;;;5047572;28;20029;-82
2021/05/07 07:23:14;;;;;;;4.45;2.40;;;7.80;99.90;;;;;;5033951;28;20052;-81
2021/05/07 07:25:40;;;;;;;3.47;2.10;;;7.90;99.90;;;;;;5046407;28;20039;-79
2021/05/07 07:28:06;;;;;;;4.10;3.22;;;8.00;99.90;;;;;;5047783;28;20418;-80
2021/05/07 07:30:32;;;;;;;3.13;2.53;;;8.30;99.90;;;;;;5049512;28;20078;-79
2021/05/07 07:32:58;;;;;;;6.07;3.67;;;8.30;99.90;;;;;;5049889;28;20025;-80
2021/05/07 07:35:24;;;;;;;4.80;3.25;;;8.30;99.90;;;;;;5049861;28;20028;-79
2021/05/07 07:37:50;;;;;;;5.28;3.70;;;8.30;99.90;;;;;;5047271;28;20391;-79
2021/05/07 07:40:16;;;;;;;3.78;2.75;;;8.20;99.90;;;;;;5065314;28;20066;-79
2021/05/07 07:42:42;;;;;;;6.95;3.50;;;8.10;99.90;;;;;;5046306;28;20074;-79
2021/05/07 07:45:09;;;;;;;4.20;3.08;;;8.10;99.90;;;;;;5046215;28;20067;-80
2021/05/07 07:47:35;;;;;;;6.85;4.13;;;7.90;99.90;;;;;;5036453;28;20054;-79
2021/05/07 07:50:02;;;;;;;7.85;4.35;;;7.90;99.90;;;;;;5019430;28;20026;-80
2021/05/07 07:52:28;;;;;;;5.80;4.30;;;7.70;99.90;;;;;;5017542;28;20084;-79
2021/05/07 07:54:53;;;;;;;9.40;5.28;;;7.40;99.90;;;;;;5016050;28;20033;-79
2021/05/07 07:57:19;;;;;;;9.20;5.60;;;7.60;99.90;;;;;;5020283;28;20030;-79
2021/05/07 07:59:45;;;;;;;7.15;5.32;;;7.70;99.90;;;;;;5014831;28;20052;-79
2021/05/07 08:02:10;;;;;;;9.73;5.30;;;8.00;99.90;;;;;;5013086;28;20049;-79
2021/05/07 08:04:36;;;;;;;6.80;4.93;;;8.00;99.90;;;;;;5014287;28;20034;-78
2021/05/07 08:07:02;;;;;;;5.30;4.43;;;8.20;99.90;;;;;;5013445;28;20029;-79
2021/05/07 08:09:28;;;;;;;8.65;4.85;;;8.40;99.90;;;;;;5012894;28;20486;-79
2021/05/07 08:11:53;;;;;;;5.85;4.95;;;8.40;99.90;;;;;;5012952;28;20037;-79
2021/05/07 08:14:19;;;;;;;6.90;4.70;;;8.70;99.90;;;;;;5012897;28;20098;-78
2021/05/07 08:16:45;;;;;;;6.32;3.92;;;8.80;99.90;;;;;;5012876;28;20125;-79
2021/05/07 08:19:11;;;;;;;5.75;4.32;;;8.70;99.90;;;;;;5014058;28;20030;-79
2021/05/07 08:21:37;;;;;;;5.15;4.25;;;9.00;99.90;;;;;;5012810;28;20433;-79
2021/05/07 08:24:03;;;;;;;7.85;4.38;;;9.10;99.90;;;;;;5012761;28;20022;-79
2021/05/07 08:26:29;;;;;;;7.25;4.07;;;9.10;99.90;;;;;;5012578;28;20022;-79
2021/05/07 08:28:55;;;;;;;5.75;3.67;;;9.40;99.90;;;;;;5012743;28;20038;-80
2021/05/07 08:31:21;;;;;;;6.72;3.83;;;9.50;99.90;;;;;;5012635;28;20063;-79
2021/05/07 08:33:46;;;;;;;6.25;3.63;;;10.00;99.90;;;;;;5012672;28;20022;-79
2021/05/07 08:36:12;;;;;;;5.95;3.30;;;9.90;99.90;;;;;;5012826;28;20434;-79
2021/05/07 08:38:38;;;;;;;6.60;3.67;;;9.60;99.90;;;;;;5013011;28;20026;-79
2021/05/07 08:41:04;;;;;;;5.50;3.80;;;9.60;99.90;;;;;;5012539;28;20021;-79
2021/05/07 08:43:31;;;;;;;4.45;3.85;;;9.70;99.90;;;;;;5012570;28;20028;-79
2021/05/07 08:46:05;;;;;;;5.70;3.80;;;9.70;99.90;;;;;;5012401;28;20026;-79
2021/05/07 08:48:32;;;;;;;3.63;3.10;;;9.70;99.90;;;;;;5012517;28;20060;-79
2021/05/07 08:50:58;;;;;;;4.32;3.22;;;9.80;99.90;;;;;;5012594;28;20412;-78
2021/05/07 08:53:25;;;;;;;5.38;2.97;;;10.10;99.90;;;;;;5016201;28;20033;-79
2021/05/07 08:55:51;;;;;;;4.80;3.45;;;9.90;99.90;;;;;;5016439;28;20080;-79
2021/05/07 08:58:17;;;;;;;3.95;3.00;;;9.70;99.90;;;;;;5020028;28;20393;-79
2021/05/07 09:00:44;;;;;;;4.95;3.22;;;9.70;99.90;;;;;;5025955;28;20026;-80
2021/05/07 09:03:13;;;;;;;3.97;3.05;;;9.90;99.90;;;;;;5026109;28;20048;-80
2021/05/07 09:05:39;;;;;;;4.20;3.05;;;10.10;99.90;;;;;;5015593;28;20053;-79
2021/05/07 09:08:08;;;;;;;6.30;2.92;;;10.20;99.90;;;;;;5012779;28;20149;-79
2021/05/07 09:10:45;;;;;;;7.50;3.17;;;10.30;99.90;;;;;;5012800;28;20170;-79
2021/05/07 09:13:13;;;;;;;4.53;3.10;;;10.00;99.90;;;;;;5019693;28;20084;-79
2021/05/07 09:15:52;;;;;;;4.20;3.20;;;10.00;99.90;;;;;;5014565;28;20113;-78
2021/05/07 09:18:18;;;;;;;4.85;3.38;;;9.90;99.90;;;;;;4996690;28;20022;-79
2021/05/07 09:20:49;;;;;;;3.85;3.38;;;9.70;99.90;;;;;;5012174;28;20507;-78
2021/05/07 09:23:16;;;;;;;4.82;3.20;;;9.80;99.90;;;;;;5012381;28;20018;-78
2021/05/07 09:25:51;;;;;;;5.47;3.38;;;10.20;99.90;;;;;;5013293;28;20493;-79
2021/05/07 09:28:17;;;;;;;5.03;3.55;;;10.50;99.90;;;;;;5013464;28;20037;-78
2021/05/07 09:30:45;;;;;;;5.43;3.33;;;10.60;99.90;;;;;;5012156;28;20033;-79
2021/05/07 09:33:13;;;;;;;4.32;3.17;;;10.70;99.90;;;;;;5013329;28;20022;-79
2021/05/07 09:35:40;;;;;;;5.10;3.35;;;10.60;99.90;;;;;;5012446;28;20057;-78
2021/05/07 09:38:09;;;;;;;4.18;2.85;;;10.50;99.90;;;;;;5011940;28;20030;-80
2021/05/07 09:40:37;;;;;;;4.93;3.10;;;10.40;99.90;;;;;;5012108;28;20429;-79
2021/05/07 09:43:15;;;;;;;5.82;3.15;;;10.20;99.90;;;;;;5011898;28;20041;-79
2021/05/07 09:45:42;;;;;;;4.53;2.70;;;10.50;99.90;;;;;;5012318;28;20665;-79
2021/05/07 09:48:19;;;;;;;6.97;3.08;;;10.50;99.90;;;;;;5011710;28;20049;-80
2021/05/07 09:50:46;;;;;;;5.07;2.80;;;10.70;99.90;;;;;;5012087;28;20029;-79
2021/05/07 09:53:14;;;;;;;3.80;2.95;;;10.70;99.90;;;;;;5013377;28;20050;-80
2021/05/07 09:55:41;;;;;;;5.68;3.28;;;10.10;99.90;;;;;;5011963;28;20071;-80
2021/05/07 09:58:07;;;;;;;9.75;2.92;;;9.90;99.90;;;;;;5011778;28;20120;-80
2021/05/07 10:00:33;;;;;;;8.65;3.35;;;9.90;99.90;;;;;;5011715;28;20108;-81
2021/05/07 10:02:59;;;;;;;5.88;3.00;;;9.90;99.90;;;;;;5011791;28;20025;-80
2021/05/07 10:05:27;;;;;;;5.18;3.33;;;9.70;99.90;;;;;;5011671;28;20559;-79
2021/05/07 10:07:53;;;;;;;4.07;2.90;;;10.40;99.90;;;;;;5011727;28;20118;-81
2021/05/07 10:10:19;;;;;;;6.57;3.25;;;11.00;99.90;;;;;;5011774;28;20022;-80
2021/05/07 10:12:48;;;;;;;5.20;3.47;;;11.30;99.90;;;;;;5012895;28;20473;-80
2021/05/07 10:15:25;;;;;;;4.18;3.10;;;11.70;99.90;;;;;;5012677;28;20029;-80
2021/05/07 10:17:52;;;;;;;5.40;2.83;;;11.70;99.90;;;;;;5015052;28;20025;-80
2021/05/07 10:20:29;;;;;;;6.45;3.08;;;12.00;99.90;;;;;;5014980;28;20022;-79
2021/05/07 10:22:55;;;;;;;5.80;3.00;;;11.50;99.90;;;;;;5016192;28;20037;-80
2021/05/07 10:25:23;;;;;;;6.35;2.88;;;10.90;99.90;;;;;;5014942;28;20057;-80
2021/05/07 10:27:53;;;;;;;12.20;3.35;;;10.60;99.90;;;;;;5016185;28;20018;-79
2021/05/07 10:30:30;;;;;;;6.57;2.83;;;10.10;99.90;;;;;;5014781;28;20022;-79
2021/05/07 10:33:01;;;;;;;5.82;2.67;;;10.70;99.90;;;;;;5014843;28;20045;-80
2021/05/07 10:35:36;;;;;;;5.90;2.70;;;11.80;99.90;;;;;;5014733;28;20500;-79
2021/05/07 10:38:17;;;;;;;4.32;2.83;;;11.70;99.90;;;;;;5014671;28;20033;-80
2021/05/07 10:40:44;;;;;;;3.95;2.53;;;11.20;99.90;;;;;;5014679;28;20036;-79
2021/05/07 10:43:13;;;;;;;6.00;2.80;;;11.10;99.90;;;;;;5014615;28;20026;-78
2021/05/07 10:45:38;;;;;;;3.80;2.63;;;10.90;99.90;;;;;;5014462;28;20033;-79
2021/05/07 10:48:18;;;;;;;4.07;2.83;;;10.80;99.90;;;;;;5014489;28;20050;-79
2021/05/07 10:50:46;;;;;;;4.80;2.67;;;10.70;99.90;;;;;;5015703;28;20105;-80
2021/05/07 10:53:26;;;;;;;3.75;2.35;;;11.10;99.90;;;;;;5014423;28;20366;-81
2021/05/07 10:55:52;;;;;;;4.50;2.80;;;11.40;99.90;;;;;;5014438;28;20029;-78
2021/05/07 10:58:29;;;;;;;3.58;2.50;;;11.40;99.90;;;;;;5014243;28;20026;-80
2021/05/07 11:00:55;;;;;;;3.67;2.60;;;10.90;99.90;;;;;;5014335;28;20026;-80
2021/05/07 11:03:21;;;;;;;4.57;2.58;;;10.70;99.90;;;;;;5015687;28;20072;-82
2021/05/07 11:05:51;;;;;;;5.65;2.80;;;13.10;99.90;;;;;;5016220;28;20014;-79
2021/05/07 11:08:19;;;;;;;6.15;2.63;;;13.10;99.90;;;;;;5015436;28;20034;-79
2021/05/07 11:10:48;;;;;;;3.20;2.40;;;13.10;99.90;;;;;;5014057;28;20049;-80
2021/05/07 11:13:13;;;;;;;6.50;2.80;;;12.60;99.90;;;;;;5013998;28;20029;-80
2021/05/07 11:15:39;;;;;;;4.65;2.53;;;12.10;99.90;;;;;;5014095;28;20505;-80
2021/05/07 11:18:08;;;;;;;4.57;3.22;;;12.10;99.90;;;;;;5013852;28;20080;-79
2021/05/07 11:20:36;;;;;;;5.35;2.72;;;12.10;99.90;;;;;;5015236;28;20022;-80
2021/05/07 11:23:04;;;;;;;5.65;2.70;;;11.90;99.90;;;;;;5015208;28;20018;-79
2021/05/07 11:25:34;;;;;;;6.80;3.15;;;11.70;99.90;;;;;;5015146;28;20093;-79
2021/05/07 11:28:16;;;;;;;5.63;3.00;;;11.20;99.90;;;;;;5014199;28;20037;-79
2021/05/07 11:31:00;;;;;;;7.60;3.30;;;;;;;;;;5013800;28;20022;-79
2021/05/07 11:33:30;;;;;;;4.03;2.67;;;12.60;99.90;;;;;;5015250;28;20037;-80
2021/05/07 11:36:05;;;;;;;4.95;2.70;;;13.50;99.90;;;;;;5013798;28;20030;-80
2021/05/07 11:38:32;;;;;;;6.60;2.65;;;14.20;99.90;;;;;;5014241;28;20497;-80
2021/05/07 11:40:57;;;;;;;5.40;2.60;;;14.60;99.90;;;;;;5013574;28;20018;-79
2021/05/07 11:43:28;;;;;;;6.78;2.97;;;14.60;99.90;;;;;;5013433;28;20100;-80
2021/05/07 11:46:07;;;;;;;8.30;2.72;;;14.20;99.90;;;;;;5013446;28;20026;-80
2021/05/07 11:48:34;;;;;;;6.03;2.20;;;15.10;99.90;;;;;;5013233;28;20045;-79
2021/05/07 11:51:08;;;;;;;5.10;2.65;;;15.30;99.60;;;;;;5013355;28;20088;-79
2021/05/07 11:53:35;;;;;;;4.60;2.45;;;14.80;96.50;;;;;;5013277;28;20033;-80
2021/05/07 11:56:02;;;;;;;5.68;2.30;;;14.50;96.60;;;;;;5012946;28;20096;-80
2021/05/07 11:58:36;;;;;;;6.45;2.90;;;14.20;97.20;;;;;;5013133;28;20041;-80
2021/05/07 12:01:05;;;;;;;4.40;2.22;;;13.60;97.80;;;;;;5014574;28;20021;-79
2021/05/07 12:03:38;;;;;;;5.00;2.22;;;14.10;96.20;;;;;;5013174;28;20095;-79
2021/05/07 12:06:19;;;;;;;6.68;2.00;;;14.10;95.90;;;;;;5013184;28;20469;-80
2021/05/07 12:08:46;;;;;;;4.35;2.40;;;14.80;97.20;;;;;;5013090;28;20029;-80
2021/05/07 12:11:12;;;;;;;4.20;2.15;;;14.60;94.00;;;;;;5014335;28;20065;-79
2021/05/07 12:13:39;;;;;;;3.40;1.75;;;14.80;92.50;;;;;;5012943;28;20070;-79
2021/05/07 12:16:06;;;;;;;4.30;2.00;;;14.90;93.60;;;;;;5014185;28;20057;-80
2021/05/07 12:18:33;;;;;;;2.97;2.00;;;14.70;91.10;;;;;;5012810;28;20030;-79
2021/05/07 12:21:01;;;;;;;3.38;1.75;;;14.00;92.60;;;;;;5012846;28;20026;-79
2021/05/07 12:23:48;;;;;;;4.00;1.98;;;13.50;96.60;;;;;;5012802;28;20389;-80
2021/05/07 12:26:15;;;;;;;4.28;2.10;;;13.10;96.10;;;;;;5013370;28;20029;-80
2021/05/07 12:28:52;;;;;;;2.47;2.00;;;13.50;93.90;;;;;;5012624;28;20025;-80
2021/05/07 12:31:27;;;;;;;3.83;2.05;;;13.10;94.60;;;;;;5012709;28;20022;-80
2021/05/07 12:33:53;;;;;;;4.93;2.00;;;12.50;95.20;;;;;;5012701;28;20103;-79
2021/05/07 12:36:19;;;;;;;3.95;2.08;;;12.40;96.50;;;;;;5013731;28;20434;-80
2021/05/07 12:38:45;;;;;;;3.67;2.50;;;12.40;99.80;;;;;;5012891;28;20026;-79
2021/05/07 12:41:13;;;;;;;7.70;2.92;;;12.50;98.90;;;;;;5012395;28;20072;-79
2021/05/07 12:43:49;;;;;;;4.30;2.20;;;13.40;94.50;;;;;;5012436;28;20025;-79
2021/05/07 12:46:18;;;;;;;6.18;2.08;;;15.90;99.90;;;;;;4996273;28;20460;-81
2021/05/07 12:48:53;;;;;;;5.15;2.50;;;15.80;99.80;;;;;;5041793;28;20041;-79
2021/05/07 12:51:20;;;;;;;6.95;2.45;;;16.40;99.90;;;;;;5050435;28;20029;-79
2021/05/07 12:53:47;;;;;;;6.22;2.63;;;16.30;99.90;;;;;;5035235;28;20029;-79
2021/05/07 12:56:17;;;;;;;7.40;2.60;;;15.30;99.90;;;;;;5035378;28;20079;-80
2021/05/07 12:58:43;;;;;;;8.35;2.47;;;14.20;99.90;;;;;;5035258;28;20029;-80